createdAt,value
2018-07-28T00:01:13.837Z,53.00
2018-07-28T00:03:42.255Z,53.00
2018-07-28T00:06:10.673Z,53.20
2018-07-28T00:08:39.063Z,53.20
2018-07-28T00:11:07.485Z,53.20
2018-07-28T00:13:35.866Z,53.10
2018-07-28T00:16:07.916Z,53.10
2018-07-28T00:18:36.356Z,53.10
2018-07-28T00:21:04.744Z,53.30
2018-07-28T00:23:33.371Z,53.30
2018-07-28T00:26:07.277Z,53.30
2018-07-28T00:28:35.678Z,53.30
2018-07-28T00:31:04.084Z,53.40
2018-07-28T00:33:32.552Z,53.50
2018-07-28T00:36:00.992Z,53.70
2018-07-28T00:38:29.362Z,53.90
2018-07-28T00:40:57.762Z,54.40
2018-07-28T00:43:26.165Z,54.40
2018-07-28T00:45:54.546Z,54.80
2018-07-28T00:48:23.102Z,55.70
2018-07-28T00:50:51.522Z,55.20
2018-07-28T00:53:20.004Z,55.20
2018-07-28T00:55:48.498Z,55.80
2018-07-28T00:58:16.939Z,56.10
2018-07-28T01:00:45.881Z,57.10
2018-07-28T01:03:14.299Z,57.80
2018-07-28T01:05:42.734Z,58.50
2018-07-28T01:10:39.244Z,59.60
2018-07-28T01:13:07.665Z,59.90
2018-07-28T01:15:36.268Z,60.00
2018-07-28T01:18:04.864Z,60.30
2018-07-28T01:20:33.265Z,60.70
2018-07-28T01:23:01.647Z,61.10
2018-07-28T01:25:30.043Z,61.20
2018-07-28T01:27:58.506Z,61.50
2018-07-28T01:30:29.870Z,61.50
2018-07-28T01:32:59.115Z,61.40
2018-07-28T01:35:27.496Z,61.40
2018-07-28T01:37:56.118Z,61.40
2018-07-28T01:40:24.531Z,61.80
2018-07-28T01:42:53.108Z,62.30
2018-07-28T01:45:21.490Z,62.90
2018-07-28T01:47:49.911Z,63.00
2018-07-28T01:50:18.422Z,63.20
2018-07-28T01:52:46.966Z,63.10
2018-07-28T01:55:15.919Z,63.60
2018-07-28T01:57:44.382Z,63.60
2018-07-28T02:00:13.019Z,63.70
2018-07-28T02:02:41.410Z,63.90
2018-07-28T02:05:10.559Z,64.50
2018-07-28T02:07:39.289Z,64.10
2018-07-28T02:10:08.509Z,64.10
2018-07-28T02:12:36.938Z,64.10
2018-07-28T02:15:06.149Z,64.10
2018-07-28T02:17:34.668Z,63.80
2018-07-28T02:20:03.348Z,64.10
2018-07-28T02:22:31.743Z,64.10
2018-07-28T02:25:00.138Z,64.30
2018-07-28T02:27:28.543Z,64.50
2018-07-28T02:29:56.946Z,64.40
2018-07-28T02:32:25.454Z,63.90
2018-07-28T02:34:53.911Z,63.50
2018-07-28T02:37:22.291Z,62.90
2018-07-28T02:39:50.716Z,62.20
2018-07-28T02:42:19.079Z,62.60
2018-07-28T02:44:47.462Z,62.70
2018-07-28T02:47:15.926Z,62.40
2018-07-28T02:49:44.324Z,62.20
2018-07-28T02:52:12.736Z,63.00
2018-07-28T02:54:41.171Z,62.10
2018-07-28T02:57:09.580Z,62.10
2018-07-28T02:59:38.021Z,62.10
2018-07-28T03:02:06.524Z,60.90
2018-07-28T03:04:35.028Z,60.10
2018-07-28T03:07:03.436Z,59.90
2018-07-28T03:09:31.979Z,59.80
2018-07-28T03:12:00.457Z,59.30
2018-07-28T03:14:28.908Z,59.20
2018-07-28T03:16:57.346Z,59.10
2018-07-28T03:19:25.789Z,59.70
2018-07-28T03:21:54.357Z,60.80
2018-07-28T03:24:22.854Z,61.40
2018-07-28T03:26:51.268Z,61.30
2018-07-28T03:29:19.712Z,60.40
2018-07-28T03:31:49.204Z,60.80
2018-07-28T03:34:17.637Z,62.70
2018-07-28T03:36:46.087Z,64.20
2018-07-28T03:39:14.539Z,64.70
2018-07-28T03:41:42.947Z,65.10
2018-07-28T03:44:11.373Z,64.70
2018-07-28T03:46:39.863Z,64.40
2018-07-28T03:49:08.396Z,64.80
2018-07-28T03:51:36.775Z,65.20
2018-07-28T03:54:05.232Z,65.80
2018-07-28T03:56:33.671Z,65.60
2018-07-28T03:59:02.103Z,65.10
2018-07-28T04:01:30.570Z,65.10
2018-07-28T04:03:59.016Z,65.50
2018-07-28T04:06:27.447Z,66.60
2018-07-28T04:08:55.915Z,68.40
2018-07-28T04:11:24.330Z,68.20
2018-07-28T04:13:52.758Z,68.70
2018-07-28T04:16:21.376Z,69.00
2018-07-28T04:18:49.815Z,70.00
2018-07-28T04:21:18.264Z,69.70
2018-07-28T04:23:46.887Z,70.00
2018-07-28T04:26:15.347Z,69.80
2018-07-28T04:28:43.799Z,70.40
2018-07-28T04:31:12.255Z,70.60
2018-07-28T04:33:40.666Z,70.60
2018-07-28T04:36:09.068Z,70.90
2018-07-28T04:38:37.768Z,70.20
2018-07-28T04:41:06.187Z,70.00
2018-07-28T04:43:34.612Z,70.30
2018-07-28T04:46:03.077Z,70.50
2018-07-28T04:48:31.507Z,70.90
2018-07-28T04:50:59.918Z,71.50
2018-07-28T04:53:28.348Z,70.30
2018-07-28T04:55:57.889Z,70.30
2018-07-28T04:58:26.372Z,69.10
2018-07-28T05:00:54.809Z,68.90
2018-07-28T05:03:23.239Z,66.70
2018-07-28T05:05:51.653Z,66.80
2018-07-28T05:08:20.075Z,66.30
2018-07-28T05:10:48.537Z,66.20
2018-07-28T05:13:16.936Z,65.90
2018-07-28T05:15:45.378Z,65.40
2018-07-28T05:18:13.848Z,65.10
2018-07-28T05:20:42.328Z,65.00
2018-07-28T05:23:10.741Z,64.80
2018-07-28T05:25:39.771Z,64.80
2018-07-28T05:28:08.178Z,65.10
2018-07-28T05:30:37.664Z,65.00
2018-07-28T05:33:06.245Z,64.90
2018-07-28T05:35:34.809Z,64.80
2018-07-28T05:38:03.236Z,64.70
2018-07-28T05:40:31.687Z,64.50
2018-07-28T05:43:00.127Z,64.50
2018-07-28T05:45:34.346Z,64.60
2018-07-28T05:48:02.753Z,64.40
2018-07-28T05:50:31.183Z,64.40
2018-07-28T05:52:59.574Z,64.20
2018-07-28T05:55:27.959Z,64.10
2018-07-28T05:57:56.382Z,65.20
2018-07-28T06:00:24.796Z,64.40
2018-07-28T06:02:53.227Z,64.10
2018-07-28T06:05:21.717Z,64.20
2018-07-28T06:07:50.145Z,64.20
2018-07-28T06:10:18.575Z,64.30
2018-07-28T06:12:47.011Z,64.20
2018-07-28T06:15:17.664Z,64.00
2018-07-28T06:17:46.169Z,64.10
2018-07-28T06:20:14.631Z,64.00
2018-07-28T06:22:43.260Z,64.00
2018-07-28T06:25:11.686Z,64.20
2018-07-28T06:27:40.103Z,63.90
2018-07-28T06:30:09.432Z,63.90
2018-07-28T06:32:38.032Z,63.80
2018-07-28T06:35:06.466Z,63.90
2018-07-28T06:37:34.928Z,63.60
2018-07-28T06:40:03.405Z,63.80
2018-07-28T06:42:31.846Z,63.80
2018-07-28T06:45:00.259Z,63.80
2018-07-28T06:47:28.791Z,63.80
2018-07-28T06:49:57.227Z,63.70
2018-07-28T06:52:25.907Z,63.90
2018-07-28T06:54:54.984Z,63.80
2018-07-28T06:57:23.436Z,63.60
2018-07-28T06:59:52.101Z,63.80
2018-07-28T07:02:20.583Z,63.60
2018-07-28T07:04:49.078Z,63.50
2018-07-28T07:07:19.490Z,63.90
2018-07-28T07:09:47.922Z,63.80
2018-07-28T07:12:16.372Z,63.90
2018-07-28T07:14:44.801Z,64.00
2018-07-28T07:17:13.460Z,64.20
2018-07-28T07:19:41.885Z,64.10
2018-07-28T07:22:10.331Z,64.00
2018-07-28T07:24:39.001Z,64.00
2018-07-28T07:27:07.466Z,64.00
2018-07-28T07:29:36.203Z,64.00
2018-07-28T07:32:05.602Z,63.80
2018-07-28T07:34:34.047Z,64.00
2018-07-28T07:37:02.465Z,63.90
2018-07-28T07:39:30.846Z,63.20
2018-07-28T07:41:59.351Z,63.50
2018-07-28T07:44:27.950Z,63.40
2018-07-28T07:46:56.366Z,63.70
2018-07-28T07:49:25.125Z,63.30
2018-07-28T07:51:53.549Z,62.80
2018-07-28T07:54:22.019Z,62.40
2018-07-28T07:56:50.422Z,62.40
2018-07-28T07:59:22.100Z,62.20
2018-07-28T08:01:50.512Z,62.00
2018-07-28T08:04:18.911Z,61.60
2018-07-28T08:06:47.318Z,60.80
2018-07-28T08:09:19.114Z,61.80
2018-07-28T08:11:47.508Z,61.50
2018-07-28T08:14:15.951Z,61.30
2018-07-28T08:16:44.648Z,62.00
2018-07-28T08:19:13.356Z,61.00
2018-07-28T08:21:41.992Z,60.80
2018-07-28T08:24:10.385Z,61.50
2018-07-28T08:26:39.090Z,60.70
2018-07-28T08:29:07.453Z,60.60
2018-07-28T08:31:35.850Z,59.90
2018-07-28T08:34:04.253Z,59.40
2018-07-28T08:36:32.595Z,59.50
2018-07-28T08:39:00.926Z,59.40
2018-07-28T08:41:29.375Z,59.80
2018-07-28T08:43:57.716Z,59.90
2018-07-28T08:46:26.048Z,60.00
2018-07-28T08:48:54.391Z,60.30
2018-07-28T08:51:24.811Z,60.10
2018-07-28T08:53:53.128Z,59.00
2018-07-28T08:56:21.463Z,60.00
2018-07-28T08:58:50.232Z,59.20
2018-07-28T09:01:18.540Z,59.00
2018-07-28T09:03:46.867Z,58.70
2018-07-28T09:06:15.203Z,58.60
2018-07-28T09:08:43.616Z,58.40
2018-07-28T09:11:11.956Z,58.00
2018-07-28T09:13:40.293Z,58.00
2018-07-28T09:16:08.620Z,58.40
2018-07-28T09:18:36.996Z,57.90
2018-07-28T09:21:05.378Z,58.40
2018-07-28T09:23:33.724Z,55.90
2018-07-28T09:26:02.036Z,55.10
2018-07-28T09:28:30.376Z,55.00
2018-07-28T09:30:58.691Z,55.60
2018-07-28T09:33:27.172Z,55.60
2018-07-28T09:35:55.506Z,55.30
2018-07-28T09:38:23.815Z,55.10
2018-07-28T09:40:52.133Z,55.00
2018-07-28T09:43:20.490Z,54.90
2018-07-28T09:45:48.864Z,54.80
2018-07-28T09:48:17.259Z,54.90
2018-07-28T09:50:45.600Z,55.30
2018-07-28T09:53:14.024Z,55.50
2018-07-28T09:55:42.363Z,55.60
2018-07-28T09:58:10.724Z,55.40
2018-07-28T10:00:44.298Z,55.60
2018-07-28T10:03:12.656Z,55.20
2018-07-28T10:05:40.972Z,55.10
2018-07-28T10:10:37.442Z,54.90
2018-07-28T10:13:05.771Z,54.80
2018-07-28T10:15:34.118Z,54.50
2018-07-28T10:18:02.606Z,54.80
2018-07-28T10:20:30.962Z,55.90
2018-07-28T10:22:59.359Z,55.00
2018-07-28T10:25:27.653Z,54.90
2018-07-28T10:27:55.982Z,54.30
2018-07-28T10:30:24.329Z,55.40
2018-07-28T10:32:52.757Z,55.90
2018-07-28T10:35:21.157Z,55.20
2018-07-28T10:37:49.481Z,55.30
2018-07-28T10:40:17.855Z,54.70
2018-07-28T10:42:46.289Z,54.70
2018-07-28T10:45:14.867Z,54.80
2018-07-28T10:47:43.248Z,55.00
2018-07-28T10:50:11.700Z,55.00
2018-07-28T10:52:40.180Z,54.70
2018-07-28T10:55:09.848Z,55.90
2018-07-28T10:57:38.182Z,56.10
2018-07-28T11:00:07.682Z,56.10
2018-07-28T11:02:36.015Z,55.70
2018-07-28T11:05:04.652Z,55.90
2018-07-28T11:07:34.013Z,55.80
2018-07-28T11:10:02.390Z,54.40
2018-07-28T11:12:30.732Z,56.10
2018-07-28T11:14:59.111Z,55.60
2018-07-28T11:17:27.460Z,55.40
2018-07-28T11:19:55.806Z,55.00
2018-07-28T11:22:24.430Z,55.40
2018-07-28T11:24:52.790Z,55.10
2018-07-28T11:27:21.209Z,54.70
2018-07-28T11:29:49.573Z,54.90
2018-07-28T11:32:29.296Z,54.30
2018-07-28T11:35:08.984Z,53.80
2018-07-28T11:37:48.709Z,54.20
2018-07-28T11:40:28.310Z,54.00
2018-07-28T11:43:08.202Z,53.20
2018-07-28T11:45:36.557Z,53.90
2018-07-28T11:48:04.908Z,52.90
2018-07-28T11:50:33.290Z,51.90
2018-07-28T11:53:01.663Z,51.80
2018-07-28T11:55:32.104Z,51.30
2018-07-28T11:58:00.536Z,51.80
2018-07-28T12:00:28.884Z,51.50
2018-07-28T12:02:57.226Z,51.40
2018-07-28T12:05:25.696Z,52.90
2018-07-28T12:07:54.031Z,52.80
2018-07-28T12:10:25.444Z,53.00
2018-07-28T12:12:53.785Z,53.00
2018-07-28T12:15:22.107Z,53.50
2018-07-28T12:17:50.476Z,53.70
2018-07-28T12:20:18.828Z,53.80
2018-07-28T12:22:47.236Z,54.80
2018-07-28T12:25:15.579Z,55.60
2018-07-28T12:27:43.929Z,56.50
2018-07-28T12:30:12.297Z,56.90
2018-07-28T12:32:41.140Z,57.80
2018-07-28T12:35:09.536Z,58.10
2018-07-28T12:37:37.845Z,58.00
2018-07-28T12:40:06.213Z,55.80
2018-07-28T12:42:34.587Z,54.90
2018-07-28T12:45:02.933Z,54.20
2018-07-28T12:47:31.251Z,53.40
2018-07-28T12:49:59.572Z,53.60
2018-07-28T12:52:27.899Z,53.20
2018-07-28T12:54:59.055Z,52.70
2018-07-28T12:57:31.500Z,52.80
2018-07-28T12:59:59.895Z,52.60
2018-07-28T13:02:28.220Z,53.10
2018-07-28T13:04:56.631Z,52.30
2018-07-28T13:07:25.011Z,52.10
2018-07-28T13:09:53.434Z,51.10
2018-07-28T13:12:21.797Z,50.70
2018-07-28T13:14:50.215Z,50.70
2018-07-28T13:17:18.556Z,50.30
2018-07-28T13:19:46.903Z,50.30
2018-07-28T13:22:15.286Z,50.00
2018-07-28T13:24:43.616Z,49.70
2018-07-28T13:27:11.959Z,49.90
2018-07-28T13:29:40.331Z,50.40
2018-07-28T13:32:08.689Z,50.20
2018-07-28T13:34:37.060Z,50.00
2018-07-28T13:37:05.895Z,49.80
2018-07-28T13:39:34.245Z,49.40
2018-07-28T13:42:02.655Z,49.20
2018-07-28T13:44:31.071Z,49.00
2018-07-28T13:46:59.431Z,48.80
2018-07-28T13:49:27.820Z,48.70
2018-07-28T13:51:56.348Z,48.80
2018-07-28T13:54:24.789Z,49.00
2018-07-28T13:56:53.156Z,49.20
2018-07-28T13:59:24.673Z,50.10
2018-07-28T14:01:53.052Z,51.10
2018-07-28T14:04:21.425Z,51.20
2018-07-28T14:06:49.815Z,50.70
2018-07-28T14:09:18.148Z,50.60
2018-07-28T14:11:46.497Z,50.40
2018-07-28T14:14:14.850Z,50.30
2018-07-28T14:16:43.222Z,50.00
2018-07-28T14:19:11.570Z,49.50
2018-07-28T14:21:39.924Z,49.20
2018-07-28T14:24:08.307Z,48.90
2018-07-28T14:26:36.668Z,48.50
2018-07-28T14:29:05.018Z,48.30
2018-07-28T14:31:34.004Z,48.00
2018-07-28T14:34:02.524Z,47.90
2018-07-28T14:36:30.840Z,47.50
2018-07-28T14:38:59.220Z,47.40
2018-07-28T14:41:27.570Z,46.80
2018-07-28T14:43:55.913Z,47.10
2018-07-28T14:46:24.288Z,47.00
2018-07-28T14:48:52.643Z,47.30
2018-07-28T14:51:20.992Z,47.10
2018-07-28T14:53:49.388Z,47.10
2018-07-28T14:56:17.748Z,47.40
2018-07-28T14:58:46.149Z,53.40
2018-07-28T15:01:14.703Z,41.10
2018-07-28T15:03:43.256Z,44.60
2018-07-28T15:06:11.556Z,47.30
2018-07-28T15:08:39.908Z,48.30
2018-07-28T15:11:08.321Z,47.40
2018-07-28T15:13:36.726Z,47.90
2018-07-28T15:16:05.083Z,48.40
2018-07-28T15:18:33.444Z,48.60
2018-07-28T15:21:01.800Z,48.60
2018-07-28T15:23:30.332Z,48.80
2018-07-28T15:25:58.684Z,48.20
2018-07-28T15:28:27.019Z,47.80
2018-07-28T15:30:55.577Z,47.70
2018-07-28T15:33:23.941Z,47.40
2018-07-28T15:35:52.374Z,47.10
2018-07-28T15:38:20.746Z,46.90
2018-07-28T15:40:49.076Z,46.50
2018-07-28T15:43:18.532Z,46.50
2018-07-28T15:45:46.992Z,46.30
2018-07-28T15:50:43.536Z,46.50
2018-07-28T15:53:11.944Z,45.60
2018-07-28T15:55:40.303Z,45.40
2018-07-28T15:58:08.653Z,45.30
2018-07-28T16:00:37.048Z,45.20
2018-07-28T16:03:06.608Z,45.10
2018-07-28T16:05:34.958Z,45.10
2018-07-28T16:08:03.268Z,45.10
2018-07-28T16:10:31.612Z,45.00
2018-07-28T16:12:59.925Z,45.10
2018-07-28T16:15:28.244Z,44.90
2018-07-28T16:17:56.580Z,45.00
2018-07-28T16:20:24.932Z,45.30
2018-07-28T16:22:53.276Z,45.80
2018-07-28T16:25:22.499Z,45.90
2018-07-28T16:27:50.890Z,45.70
2018-07-28T16:30:19.260Z,45.70
2018-07-28T16:32:47.604Z,45.50
2018-07-28T16:35:15.952Z,45.40
2018-07-28T16:37:44.270Z,45.10
2018-07-28T16:40:12.658Z,45.00
2018-07-28T16:42:40.988Z,44.70
2018-07-28T16:45:09.326Z,44.50
2018-07-28T16:47:37.681Z,44.20
2018-07-28T16:50:06.192Z,44.10
2018-07-28T16:52:34.519Z,44.00
2018-07-28T17:01:52.947Z,43.50
2018-07-28T17:04:21.396Z,43.10
2018-07-28T17:06:49.712Z,42.90
2018-07-28T17:09:18.059Z,42.90
2018-07-28T17:11:46.428Z,42.80
2018-07-28T17:14:14.751Z,42.80
2018-07-28T17:16:43.126Z,42.40
2018-07-28T17:19:11.612Z,42.90
2018-07-28T17:21:39.913Z,42.90
2018-07-28T17:24:08.268Z,41.50
2018-07-28T17:26:36.600Z,40.70
2018-07-28T17:29:04.977Z,40.70
2018-07-28T17:31:33.336Z,40.70
2018-07-28T17:34:01.677Z,39.60
2018-07-28T17:36:30.029Z,39.70
2018-07-28T17:38:58.397Z,39.80
2018-07-28T17:41:27.146Z,38.70
2018-07-28T17:43:55.487Z,38.50
2018-07-28T17:46:24.263Z,38.40
2018-07-28T17:48:52.589Z,38.30
2018-07-28T17:51:21.114Z,38.20
2018-07-28T17:53:49.517Z,37.80
2018-07-28T17:56:17.908Z,37.80
2018-07-28T17:58:46.268Z,36.70
2018-07-28T18:01:14.622Z,37.30
2018-07-28T18:03:42.940Z,37.60
2018-07-28T18:06:15.135Z,37.80
2018-07-28T18:08:43.865Z,37.80
2018-07-28T18:11:14.375Z,37.20
2018-07-28T18:13:42.780Z,37.20
2018-07-28T18:16:11.132Z,37.50
2018-07-28T18:18:39.490Z,37.40
2018-07-28T18:21:08.337Z,37.40
2018-07-28T18:26:05.093Z,37.10
2018-07-28T18:28:33.459Z,37.00
2018-07-28T18:31:01.799Z,37.00
2018-07-28T18:33:30.156Z,36.80
2018-07-28T18:38:26.750Z,36.90
2018-07-28T18:40:55.080Z,37.20
2018-07-28T18:45:51.552Z,37.20
2018-07-28T18:48:19.893Z,37.40
2018-07-28T18:50:48.264Z,37.70
2018-07-28T18:53:16.923Z,37.60
2018-07-28T18:55:45.256Z,38.00
2018-07-28T18:58:13.630Z,37.20
2018-07-28T19:00:41.997Z,35.70
2018-07-28T19:03:10.352Z,35.30
2018-07-28T19:05:38.727Z,35.50
2018-07-28T19:08:08.249Z,36.00
2018-07-28T19:10:36.629Z,36.00
2018-07-28T19:13:10.496Z,35.80
2018-07-28T19:15:38.851Z,35.80
2018-07-28T19:18:12.578Z,35.70
2018-07-28T19:20:40.944Z,35.90
2018-07-28T19:23:14.705Z,35.80
2018-07-28T19:25:43.035Z,35.40
2018-07-28T19:28:16.836Z,35.40
2018-07-28T19:30:45.188Z,35.90
2018-07-28T19:33:13.566Z,35.50
2018-07-28T19:35:47.789Z,35.60
2018-07-28T19:38:16.162Z,35.60
2018-07-28T19:40:44.504Z,35.60
2018-07-28T19:43:12.885Z,35.70
2018-07-28T19:45:41.268Z,35.80
2018-07-28T19:48:09.610Z,35.80
2018-07-28T19:50:38.002Z,35.80
2018-07-28T19:53:06.620Z,35.70
2018-07-28T19:55:34.960Z,35.90
2018-07-28T19:58:03.343Z,35.70
2018-07-28T20:00:31.690Z,35.70
2018-07-28T20:03:00.057Z,35.90
2018-07-28T20:05:28.494Z,35.90
2018-07-28T20:07:56.856Z,35.90
2018-07-28T20:10:26.134Z,35.80
2018-07-28T20:12:54.493Z,36.00
2018-07-28T20:15:22.831Z,35.90
2018-07-28T20:17:51.178Z,35.90
2018-07-28T20:20:19.537Z,36.10
2018-07-28T20:22:47.880Z,35.80
2018-07-28T20:25:16.208Z,35.40
2018-07-28T20:27:44.598Z,36.10
2018-07-28T20:30:12.952Z,36.40
2018-07-28T20:32:41.313Z,36.50
2018-07-28T20:35:09.657Z,36.70
2018-07-28T20:37:38.139Z,36.80
2018-07-28T20:40:06.484Z,37.20
2018-07-28T20:42:34.856Z,37.30
2018-07-28T20:49:59.488Z,37.70
2018-07-28T20:52:27.820Z,37.90
2018-07-28T20:54:56.164Z,38.10
2018-07-28T20:57:24.522Z,38.10
2018-07-28T20:59:52.856Z,38.60
2018-07-28T21:02:21.256Z,39.70
2018-07-28T21:04:49.610Z,39.40
2018-07-28T21:07:17.964Z,39.60
2018-07-28T21:09:46.361Z,39.80
2018-07-28T21:12:14.938Z,40.00
2018-07-28T21:14:43.276Z,40.10
2018-07-28T21:17:11.645Z,39.90
2018-07-28T21:19:40.044Z,40.00
2018-07-28T21:22:08.378Z,40.20
2018-07-28T21:24:36.773Z,40.30
2018-07-28T21:27:05.623Z,40.60
2018-07-28T21:29:34.180Z,40.70
2018-07-28T21:32:02.691Z,40.70
2018-07-28T21:34:31.174Z,40.90
2018-07-28T21:36:59.533Z,41.20
2018-07-28T21:39:27.916Z,41.40
2018-07-28T21:41:56.296Z,41.60
2018-07-28T21:44:24.615Z,41.80
2018-07-28T21:49:21.035Z,41.90
2018-07-28T21:51:49.350Z,42.00
2018-07-28T21:54:17.681Z,42.10
2018-07-28T21:56:46.048Z,42.00
2018-07-28T21:59:14.409Z,42.00
2018-07-28T22:01:43.967Z,42.00
2018-07-28T22:04:18.428Z,42.10
2018-07-28T22:06:46.768Z,42.10
2018-07-28T22:09:15.128Z,42.30
2018-07-28T22:11:43.546Z,42.40
2018-07-28T22:14:12.127Z,42.40
2018-07-28T22:16:40.547Z,43.00
2018-07-28T22:19:08.993Z,42.50
2018-07-28T22:21:37.439Z,42.60
2018-07-28T22:24:05.854Z,42.70
2018-07-28T22:26:34.950Z,42.80
2018-07-28T22:29:03.363Z,42.80
2018-07-28T22:31:31.791Z,42.90
2018-07-28T22:34:00.279Z,43.00
2018-07-28T22:36:28.705Z,43.20
2018-07-28T22:38:57.183Z,43.30
2018-07-28T22:41:25.626Z,43.50
2018-07-28T22:43:54.053Z,43.60
2018-07-28T22:46:22.455Z,43.70
2018-07-28T22:48:50.915Z,43.80
2018-07-28T22:51:19.337Z,44.00
2018-07-28T22:53:47.748Z,44.10
2018-07-28T22:56:16.196Z,44.20
2018-07-28T22:58:44.673Z,44.40
2018-07-28T23:01:13.171Z,44.60
2018-07-28T23:03:41.616Z,44.70
2018-07-28T23:06:10.043Z,44.80
2018-07-28T23:08:38.445Z,44.90
2018-07-28T23:11:06.930Z,45.00
2018-07-28T23:13:35.357Z,44.90
2018-07-28T23:16:03.843Z,44.80
2018-07-28T23:18:32.317Z,44.70
2018-07-28T23:21:00.764Z,44.70
2018-07-28T23:23:29.198Z,44.60
2018-07-28T23:25:57.659Z,44.50
2018-07-28T23:28:27.168Z,44.50
2018-07-28T23:30:55.616Z,44.70
2018-07-28T23:33:24.048Z,45.00
2018-07-28T23:35:52.664Z,45.20
2018-07-28T23:38:21.093Z,45.30
2018-07-28T23:40:49.503Z,45.50
2018-07-28T23:43:17.918Z,45.60
2018-07-28T23:45:46.305Z,45.70
2018-07-28T23:48:14.771Z,45.70
2018-07-28T23:50:43.201Z,45.90
2018-07-28T23:53:11.606Z,45.90
2018-07-28T23:55:40.048Z,45.80
2018-07-28T23:58:08.476Z,45.90
